Time;durP1;ratioP1;P1;durP2;ratioP2;P2;SDS_P1;SDS_P2;PMS_P1;PMS_P2;Temp;Humidity;BMP_temperature;BMP_pressure;BME280_temperature;BME280_humidity;BME280_pressure;Samples;Min_cycle;Max_cycle;Signal;HPM_P1;HPM_P2
2021/11/23 00:01:54;;;;;;;20.10;2.90;;;;;;;;;;5096668;28;20032;-63
2021/11/23 00:04:21;;;;;;;28.77;5.68;;;;;;;;;;5095629;28;20040;-63
2021/11/23 00:06:47;;;;;;;18.92;2.83;;;;;;;;;;5098918;28;20043;-63
2021/11/23 00:09:13;;;;;;;22.23;4.15;;;;;;;;;;5089331;28;20055;-63
2021/11/23 00:11:39;;;;;;;20.77;3.58;;;;;;;;;;5091250;28;20047;-63
2021/11/23 00:14:05;;;;;;;27.55;5.38;;;;;;;;;;5074209;28;20577;-63
2021/11/23 00:16:32;;;;;;;25.42;3.90;;;;;;;;;;5075588;28;20116;-63
2021/11/23 00:18:58;;;;;;;25.10;5.28;;;;;;;;;;5090960;28;20051;-63
2021/11/23 00:21:24;;;;;;;26.85;4.28;;;;;;;;;;5088857;28;20038;-63
2021/11/23 00:23:50;;;;;;;25.23;4.00;;;;;;;;;;5088546;28;20160;-63
2021/11/23 00:26:17;;;;;;;31.67;4.20;;;;;;;;;;5090796;28;20502;-63
2021/11/23 00:28:45;;;;;;;24.15;3.97;;;;;;;;;;5089269;28;20048;-63
2021/11/23 00:31:11;;;;;;;26.13;4.05;;;;;;;;;;5088210;28;20474;-63
2021/11/23 00:33:42;;;;;;;15.95;3.15;;;;;;;;;;5092004;28;20056;-63
2021/11/23 00:36:09;;;;;;;27.83;3.95;;;;;;;;;;5085364;28;20036;-63
2021/11/23 00:38:41;;;;;;;22.55;4.90;;;;;;;;;;5090128;28;20122;-64
2021/11/23 00:41:07;;;;;;;24.75;4.07;;;;;;;;;;5098335;28;20418;-63
2021/11/23 00:43:34;;;;;;;22.90;3.53;;;;;;;;;;5083965;28;20082;-63
2021/11/23 00:46:00;;;;;;;19.20;4.05;;;;;;;;;;5080766;28;20162;-63
2021/11/23 00:48:26;;;;;;;17.60;3.53;;;;;;;;;;5084181;28;20048;-63
2021/11/23 00:50:52;;;;;;;19.00;2.95;;;;;;;;;;5094042;28;20123;-63
2021/11/23 00:53:18;;;;;;;21.48;3.30;;;;;;;;;;5091616;28;20109;-63
2021/11/23 00:55:45;;;;;;;14.90;2.42;;;;;;;;;;5093656;28;20412;-63
2021/11/23 00:58:12;;;;;;;17.48;2.28;;;;;;;;;;5100419;28;20075;-63
2021/11/23 01:00:38;;;;;;;16.75;2.40;;;;;;;;;;5091317;28;20127;-63
2021/11/23 01:03:04;;;;;;;20.48;2.83;;;;;;;;;;5090703;28;20032;-63
2021/11/23 01:05:30;;;;;;;20.63;2.75;;;;;;;;;;5093693;28;20054;-63
2021/11/23 01:07:57;;;;;;;22.38;3.58;;;;;;;;;;5089857;28;20503;-63
2021/11/23 01:10:24;;;;;;;23.35;2.75;;;;;;;;;;5115384;28;20090;-63
2021/11/23 01:12:50;;;;;;;19.23;2.63;;;;;;;;;;5106248;28;20052;-63
2021/11/23 01:15:17;;;;;;;28.15;2.85;;;;;;;;;;5086420;28;20119;-63
2021/11/23 01:17:43;;;;;;;23.48;3.08;;;;;;;;;;5114036;28;20371;-63
2021/11/23 01:20:10;;;;;;;21.58;2.90;;;;;;;;;;5108271;28;20047;-63
2021/11/23 01:22:37;;;;;;;27.25;3.72;;;;;;;;;;5101575;28;20228;-63
2021/11/23 01:25:04;;;;;;;21.00;2.65;;;;;;;;;;5106398;28;20036;-63
2021/11/23 01:27:30;;;;;;;16.95;2.47;;;;;;;;;;5113395;28;20035;-63
2021/11/23 01:29:56;;;;;;;28.63;3.60;;;;;;;;;;5115746;28;20043;-63
2021/11/23 01:32:23;;;;;;;17.90;3.22;;;;;;;;;;5112159;28;20163;-63
2021/11/23 01:34:49;;;;;;;22.30;3.00;;;;;;;;;;5121976;28;20074;-63
2021/11/23 01:37:15;;;;;;;22.08;2.90;;;;;;;;;;5117536;28;20028;-63
2021/11/23 01:39:42;;;;;;;18.33;2.35;;;;;;;;;;5114811;28;20380;-63
2021/11/23 01:42:08;;;;;;;20.23;3.42;;;;;;;;;;5113845;28;20036;-63
2021/11/23 01:44:35;;;;;;;20.10;2.50;;;;;;;;;;5111557;28;20050;-63
2021/11/23 01:47:01;;;;;;;22.95;3.33;;;;;;;;;;5112749;28;20081;-63
2021/11/23 01:49:27;;;;;;;23.63;2.67;;;;;;;;;;5111300;28;20047;-63
2021/11/23 01:51:53;;;;;;;15.05;2.80;;;;;;;;;;5111476;28;20040;-63
2021/11/23 01:54:19;;;;;;;20.13;2.20;;;;;;;;;;5111064;28;20093;-63
2021/11/23 01:56:46;;;;;;;15.57;3.03;;;;;;;;;;5089946;28;20048;-63
2021/11/23 01:59:12;;;;;;;22.70;3.05;;;;;;;;;;5092880;28;20044;-63
2021/11/23 02:01:39;;;;;;;18.02;1.98;;;;;;;;;;5109895;27;20044;-63
2021/11/23 02:04:05;;;;;;;20.50;3.45;;;;;;;;;;5110347;27;20561;-63
2021/11/23 02:06:32;;;;;;;17.98;2.45;;;;;;;;;;5093028;28;20054;-63
2021/11/23 02:08:59;;;;;;;19.85;2.60;;;;;;;;;;5114204;27;20039;-63
2021/11/23 02:11:25;;;;;;;22.92;3.05;;;;;;;;;;5109864;27;20083;-63
2021/11/23 02:13:52;;;;;;;31.00;2.88;;;;;;;;;;5114170;27;20042;-63
2021/11/23 02:16:18;;;;;;;27.58;2.55;;;;;;;;;;5073047;28;20040;-63
2021/11/23 02:18:44;;;;;;;29.55;3.28;;;;;;;;;;5105674;27;20078;-63
2021/11/23 02:21:11;;;;;;;26.55;2.92;;;;;;;;;;5121002;27;20043;-63
2021/11/23 02:23:37;;;;;;;27.58;3.15;;;;;;;;;;5118409;27;20046;-63
2021/11/23 02:26:03;;;;;;;25.17;2.58;;;;;;;;;;5116171;27;20402;-63
2021/11/23 02:28:30;;;;;;;23.75;2.42;;;;;;;;;;5117604;27;20087;-63
2021/11/23 02:30:57;;;;;;;29.08;2.88;;;;;;;;;;5118273;27;20039;-63
2021/11/23 02:33:24;;;;;;;27.20;3.00;;;;;;;;;;5121913;27;20085;-63
2021/11/23 02:35:51;;;;;;;25.77;3.10;;;;;;;;;;5112891;27;20036;-63
2021/11/23 02:38:19;;;;;;;22.17;2.65;;;;;;;;;;5109053;27;20051;-63
2021/11/23 02:40:46;;;;;;;25.90;3.72;;;;;;;;;;5114799;27;20449;-63
2021/11/23 02:43:12;;;;;;;24.55;3.35;;;;;;;;;;5112901;27;20126;-63
2021/11/23 02:45:38;;;;;;;36.45;3.45;;;;;;;;;;5108171;27;20501;-63
2021/11/23 02:48:06;;;;;;;37.15;3.00;;;;;;;;;;5095882;27;20032;-64
2021/11/23 02:50:33;;;;;;;22.70;2.63;;;;;;;;;;5110785;27;20105;-63
2021/11/23 02:52:59;;;;;;;23.17;2.65;;;;;;;;;;5105528;27;20035;-63
2021/11/23 02:55:27;;;;;;;22.38;2.47;;;;;;;;;;5093430;28;20066;-63
2021/11/23 02:57:53;;;;;;;14.05;2.40;;;;;;;;;;5117249;27;20035;-63
2021/11/23 03:00:21;;;;;;;19.20;2.40;;;;;;;;;;5113551;27;20040;-63
2021/11/23 03:02:48;;;;;;;11.40;1.63;;;;;;;;;;5111799;27;20063;-63
2021/11/23 03:05:16;;;;;;;14.23;1.33;;;;;;;;;;5114166;27;20043;-63
2021/11/23 03:07:43;;;;;;;8.80;1.33;;;;;;;;;;5099015;27;20098;-63
2021/11/23 03:13:13;;;;;;;7.65;0.90;;;;;;;;;;5112129;28;20042;-64
2021/11/23 03:15:39;;;;;;;10.02;1.10;;;;;;;;;;5113045;28;20050;-63
2021/11/23 03:18:06;;;;;;;11.95;1.00;;;;;;;;;;5130301;27;20042;-63
2021/11/23 03:20:33;;;;;;;11.10;1.20;;;;;;;;;;5112787;27;20605;-64
2021/11/23 03:22:59;;;;;;;14.13;1.50;;;;;;;;;;5117121;27;20745;-63
2021/11/23 03:25:26;;;;;;;21.30;1.55;;;;;;;;;;5110561;27;20043;-63
2021/11/23 03:27:52;;;;;;;9.13;1.27;;;;;;;;;;5110570;27;20124;-63
2021/11/23 03:30:23;;;;;;;20.35;1.85;;;;;;;;;;5108180;27;20390;-63
2021/11/23 03:32:50;;;;;;;10.02;1.52;;;;;;;;;;5111104;27;20086;-64
2021/11/23 03:35:18;;;;;;;16.58;1.42;;;;;;;;;;5113544;27;20046;-63
2021/11/23 03:37:45;;;;;;;9.82;1.25;;;;;;;;;;5117878;27;20096;-63
2021/11/23 03:40:12;;;;;;;12.32;1.33;;;;;;;;;;5116160;27;20048;-63
2021/11/23 03:42:38;;;;;;;9.02;1.35;;;;;;;;;;5119526;27;20043;-63
2021/11/23 03:45:05;;;;;;;16.48;1.40;;;;;;;;;;5123793;27;20047;-63
2021/11/23 03:47:33;;;;;;;15.57;1.30;;;;;;;;;;5111120;27;20495;-63
2021/11/23 03:49:59;;;;;;;11.80;1.35;;;;;;;;;;5105750;27;20042;-63
2021/11/23 03:52:26;;;;;;;10.13;1.50;;;;;;;;;;5106727;27;20059;-63
2021/11/23 03:54:52;;;;;;;13.68;1.38;;;;;;;;;;5106124;27;20077;-63
2021/11/23 03:57:18;;;;;;;13.70;1.42;;;;;;;;;;5115650;27;20327;-63
2021/11/23 03:59:47;;;;;;;15.25;1.52;;;;;;;;;;5116259;27;20131;-63
2021/11/23 04:02:14;;;;;;;16.38;1.65;;;;;;;;;;5120053;27;20053;-63
2021/11/23 04:04:41;;;;;;;14.38;1.45;;;;;;;;;;5102824;27;20459;-63
2021/11/23 04:07:07;;;;;;;14.15;1.27;;;;;;;;;;5095287;27;20133;-63
2021/11/23 04:09:33;;;;;;;12.82;1.50;;;;;;;;;;5089647;27;20052;-63
2021/11/23 04:11:59;;;;;;;13.45;1.45;;;;;;;;;;5086575;28;20044;-63
2021/11/23 04:14:25;;;;;;;9.73;1.42;;;;;;;;;;5087744;28;20043;-63
2021/11/23 04:16:51;;;;;;;13.75;1.52;;;;;;;;;;5094459;28;20064;-63
2021/11/23 04:19:17;;;;;;;13.05;1.73;;;;;;;;;;5093706;28;20519;-63
2021/11/23 04:21:44;;;;;;;10.15;1.10;;;;;;;;;;5094712;28;20067;-63
2021/11/23 04:24:10;;;;;;;21.80;1.98;;;;;;;;;;5100198;28;20479;-63
2021/11/23 04:26:36;;;;;;;7.95;0.85;;;;;;;;;;5092671;28;20037;-64
2021/11/23 04:29:02;;;;;;;10.32;1.52;;;;;;;;;;5088504;28;20123;-63
2021/11/23 04:31:28;;;;;;;13.80;1.35;;;;;;;;;;5084468;28;20041;-63
2021/11/23 04:33:55;;;;;;;15.77;1.95;;;;;;;;;;5089402;28;20051;-63
2021/11/23 04:36:21;;;;;;;13.75;1.40;;;;;;;;;;5073287;28;20039;-63
2021/11/23 04:38:47;;;;;;;6.20;1.33;;;;;;;;;;5078894;28;20043;-63
2021/11/23 04:41:13;;;;;;;16.05;2.25;;;;;;;;;;5088537;28;20040;-63
2021/11/23 04:43:39;;;;;;;17.35;1.88;;;;;;;;;;5101823;28;20375;-63
2021/11/23 04:46:05;;;;;;;5.80;1.10;;;;;;;;;;5100307;28;20084;-63
2021/11/23 04:48:31;;;;;;;14.60;1.70;;;;;;;;;;5088261;28;20044;-63
2021/11/23 04:50:58;;;;;;;9.50;1.20;;;;;;;;;;5091191;28;20053;-63
2021/11/23 04:53:24;;;;;;;15.25;1.20;;;;;;;;;;5088364;28;20048;-63
2021/11/23 04:55:51;;;;;;;11.65;1.05;;;;;;;;;;5091121;28;20039;-63
2021/11/23 04:58:17;;;;;;;8.50;1.15;;;;;;;;;;5091969;28;20040;-63
2021/11/23 05:00:44;;;;;;;11.82;1.35;;;;;;;;;;5085431;28;20048;-63
2021/11/23 05:03:10;;;;;;;14.45;1.25;;;;;;;;;;5089847;28;20047;-63
2021/11/23 05:05:36;;;;;;;9.38;1.38;;;;;;;;;;5084156;28;20040;-63
2021/11/23 05:08:02;;;;;;;15.40;1.73;;;;;;;;;;5092776;28;20047;-63
2021/11/23 05:10:29;;;;;;;10.02;1.42;;;;;;;;;;5090762;28;20040;-63
2021/11/23 05:12:56;;;;;;;12.60;1.75;;;;;;;;;;5089235;28;20036;-63
2021/11/23 05:15:22;;;;;;;13.80;1.85;;;;;;;;;;5088939;28;20148;-64
2021/11/23 05:17:48;;;;;;;22.73;1.92;;;;;;;;;;5088440;28;20043;-63
2021/11/23 05:20:14;;;;;;;14.35;1.80;;;;;;;;;;5100600;28;20092;-63
2021/11/23 05:22:40;;;;;;;12.30;1.52;;;;;;;;;;5084717;28;20036;-63
2021/11/23 05:25:07;;;;;;;10.13;1.20;;;;;;;;;;5067120;28;20048;-63
2021/11/23 05:27:34;;;;;;;17.58;1.50;;;;;;;;;;5084778;28;20649;-63
2021/11/23 05:30:00;;;;;;;13.93;1.50;;;;;;;;;;5084115;28;20067;-63
2021/11/23 05:32:28;;;;;;;14.43;1.70;;;;;;;;;;5086508;28;20050;-63
2021/11/23 05:34:54;;;;;;;22.60;2.80;;;;;;;;;;5088080;28;20047;-63
2021/11/23 05:37:20;;;;;;;20.25;1.55;;;;;;;;;;5085412;28;20041;-63
2021/11/23 05:39:46;;;;;;;22.77;1.65;;;;;;;;;;5092399;28;20136;-63
2021/11/23 05:42:13;;;;;;;13.82;2.42;;;;;;;;;;5087416;28;20111;-63
2021/11/23 05:44:39;;;;;;;11.82;1.50;;;;;;;;;;5079171;28;20044;-63
2021/11/23 05:47:06;;;;;;;14.75;1.73;;;;;;;;;;5096282;28;20059;-63
2021/11/23 05:49:32;;;;;;;14.82;2.10;;;;;;;;;;5098328;28;20139;-63
2021/11/23 05:51:59;;;;;;;12.77;1.50;;;;;;;;;;5068274;28;20040;-63
2021/11/23 05:54:25;;;;;;;14.77;2.10;;;;;;;;;;5087353;28;20043;-63
2021/11/23 05:56:51;;;;;;;10.73;1.75;;;;;;;;;;5083933;28;20037;-63
2021/11/23 05:59:18;;;;;;;24.02;1.92;;;;;;;;;;5091165;28;20067;-67
2021/11/23 06:01:44;;;;;;;22.02;2.20;;;;;;;;;;5083893;28;20048;-63
2021/11/23 06:04:11;;;;;;;14.73;2.28;;;;;;;;;;5075000;28;20056;-64
2021/11/23 06:06:37;;;;;;;21.02;1.70;;;;;;;;;;5075767;28;20047;-63
2021/11/23 06:09:06;;;;;;;18.58;1.85;;;;;;;;;;5086368;28;20052;-63
2021/11/23 06:11:33;;;;;;;18.15;1.75;;;;;;;;;;5084745;28;20799;-64
2021/11/23 06:13:59;;;;;;;13.43;1.77;;;;;;;;;;5091899;28;20069;-63
2021/11/23 06:16:26;;;;;;;17.52;1.73;;;;;;;;;;5074871;28;20042;-64
2021/11/23 06:18:52;;;;;;;19.25;1.90;;;;;;;;;;5098160;28;20059;-64
2021/11/23 06:21:20;;;;;;;11.52;1.63;;;;;;;;;;5093326;28;20117;-64
2021/11/23 06:23:46;;;;;;;23.05;3.88;;;;;;;;;;5094187;28;20036;-64
2021/11/23 06:26:12;;;;;;;11.10;1.38;;;;;;;;;;5075320;28;20079;-64
2021/11/23 06:28:39;;;;;;;19.27;1.92;;;;;;;;;;5088526;28;20373;-65
2021/11/23 06:31:05;;;;;;;24.70;2.33;;;;;;;;;;5081939;28;20441;-64
2021/11/23 06:33:31;;;;;;;20.40;1.90;;;;;;;;;;5072509;28;20043;-62
2021/11/23 06:35:57;;;;;;;23.10;3.90;;;;;;;;;;5089197;28;20052;-63
2021/11/23 06:38:23;;;;;;;13.43;2.22;;;;;;;;;;5073065;28;20063;-64
2021/11/23 06:40:49;;;;;;;15.82;1.75;;;;;;;;;;5074745;28;20146;-64
2021/11/23 06:43:16;;;;;;;8.50;1.52;;;;;;;;;;5092206;28;20040;-63
2021/11/23 06:45:42;;;;;;;18.10;1.95;;;;;;;;;;5092142;28;20040;-64
2021/11/23 06:48:09;;;;;;;19.67;2.25;;;;;;;;;;5081622;28;20055;-64
2021/11/23 06:50:36;;;;;;;15.43;1.67;;;;;;;;;;5090477;28;20484;-63
2021/11/23 06:53:03;;;;;;;16.00;2.30;;;;;;;;;;5077227;28;20040;-64
2021/11/23 06:55:30;;;;;;;17.70;2.00;;;;;;;;;;5088557;28;20036;-63
2021/11/23 06:57:56;;;;;;;9.23;1.85;;;;;;;;;;5069965;28;20132;-64
2021/11/23 07:00:22;;;;;;;8.50;1.45;;;;;;;;;;5088959;28;20078;-64
2021/11/23 07:02:48;;;;;;;15.80;1.77;;;;;;;;;;5078713;28;20044;-64
2021/11/23 07:05:14;;;;;;;14.93;1.70;;;;;;;;;;5077315;28;20076;-63
2021/11/23 07:07:41;;;;;;;16.52;1.92;;;;;;;;;;5082819;28;20113;-64
2021/11/23 07:10:07;;;;;;;15.95;1.83;;;;;;;;;;5092740;28;20059;-63
2021/11/23 07:12:34;;;;;;;14.32;1.83;;;;;;;;;;5092111;28;20123;-63
2021/11/23 07:15:00;;;;;;;16.98;1.55;;;;;;;;;;5092052;28;20123;-64
2021/11/23 07:17:26;;;;;;;17.17;1.30;;;;;;;;;;5092158;28;20032;-63
2021/11/23 07:19:52;;;;;;;16.42;1.90;;;;;;;;;;5091404;28;20173;-63
2021/11/23 07:22:19;;;;;;;17.20;2.42;;;;;;;;;;5092247;28;20036;-63
2021/11/23 07:24:45;;;;;;;15.43;1.83;;;;;;;;;;5092456;28;20044;-64
2021/11/23 07:27:11;;;;;;;13.07;2.42;;;;;;;;;;5091267;28;20403;-71
2021/11/23 07:29:37;;;;;;;14.77;1.33;;;;;;;;;;5091781;28;20043;-64
2021/11/23 07:32:04;;;;;;;9.57;1.58;;;;;;;;;;5091171;28;20431;-65
2021/11/23 07:34:30;;;;;;;8.57;2.00;;;;;;;;;;5091290;28;20055;-64
2021/11/23 07:36:56;;;;;;;13.98;1.85;;;;;;;;;;5092672;28;20460;-64
2021/11/23 07:39:22;;;;;;;14.73;1.58;;;;;;;;;;5091908;28;20113;-65
2021/11/23 07:41:49;;;;;;;14.63;1.60;;;;;;;;;;5091421;28;20039;-64
2021/11/23 07:44:15;;;;;;;14.00;1.90;;;;;;;;;;5091732;28;20105;-64
2021/11/23 07:46:41;;;;;;;13.55;1.58;;;;;;;;;;5091901;28;20074;-64
2021/11/23 07:49:07;;;;;;;19.20;1.85;;;;;;;;;;5091091;28;20048;-64
2021/11/23 07:51:35;;;;;;;13.82;1.70;;;;;;;;;;5073572;28;20475;-64
2021/11/23 07:54:01;;;;;;;23.67;2.40;;;;;;;;;;5091629;28;20040;-64
2021/11/23 07:56:28;;;;;;;12.43;1.58;;;;;;;;;;5090641;28;20052;-64
2021/11/23 07:58:54;;;;;;;17.30;1.27;;;;;;;;;;5091242;28;20050;-64
2021/11/23 08:01:20;;;;;;;12.77;2.53;;;;;;;;;;5090804;28;20463;-64
2021/11/23 08:03:46;;;;;;;14.15;2.10;;;;;;;;;;5091000;28;20377;-64
2021/11/23 08:06:12;;;;;;;9.43;1.95;;;;;;;;;;5090561;28;20050;-64
2021/11/23 08:08:39;;;;;;;11.38;2.28;;;;;;;;;;5090778;28;20059;-64
2021/11/23 08:11:07;;;;;;;9.85;2.00;;;;;;;;;;5073796;28;20051;-64
2021/11/23 08:13:33;;;;;;;6.60;1.75;;;;;;;;;;5091711;28;20036;-64
2021/11/23 08:16:03;;;;;;;9.20;1.90;;;;;;;;;;5091564;28;20139;-64
2021/11/23 08:18:30;;;;;;;18.65;3.03;;;;;;;;;;5091721;28;20109;-64
2021/11/23 08:20:56;;;;;;;15.40;3.13;;;;;;;;;;5073633;28;20047;-64
2021/11/23 08:23:22;;;;;;;13.07;2.75;;;;;;;;;;5073000;28;20040;-64
2021/11/23 08:25:49;;;;;;;14.60;2.47;;;;;;;;;;5073799;28;20044;-65
2021/11/23 08:28:15;;;;;;;18.25;2.20;;;;;;;;;;5073680;28;20052;-64
2021/11/23 08:30:42;;;;;;;16.63;2.17;;;;;;;;;;5091231;28;20048;-64
2021/11/23 08:33:08;;;;;;;24.25;2.45;;;;;;;;;;5091791;28;20036;-64
2021/11/23 08:35:34;;;;;;;9.02;1.90;;;;;;;;;;5091425;28;20498;-64
2021/11/23 08:38:00;;;;;;;13.93;1.63;;;;;;;;;;5073080;28;20122;-64
2021/11/23 08:40:27;;;;;;;17.80;2.30;;;;;;;;;;5091868;28;20046;-64
2021/11/23 08:42:53;;;;;;;19.92;2.33;;;;;;;;;;5091477;28;20043;-64
2021/11/23 08:45:19;;;;;;;21.38;2.22;;;;;;;;;;5091168;28;20121;-64
2021/11/23 08:47:47;;;;;;;13.75;1.90;;;;;;;;;;5091323;28;20472;-64
2021/11/23 08:50:14;;;;;;;18.95;1.73;;;;;;;;;;5081958;28;20056;-64
2021/11/23 08:52:40;;;;;;;16.73;2.33;;;;;;;;;;5085402;28;20069;-64
2021/11/23 08:55:06;;;;;;;20.80;1.77;;;;;;;;;;5091599;28;20043;-64
2021/11/23 08:57:33;;;;;;;21.92;2.65;;;;;;;;;;5091501;28;20050;-64
2021/11/23 09:00:21;;;;;;;19.35;2.28;;;;;;;;;;5088994;28;20089;-64
2021/11/23 09:02:49;;;;;;;16.48;3.03;;;;;;;;;;5090641;28;20109;-64
2021/11/23 09:05:17;;;;;;;16.23;3.42;;;;;;;;;;5089413;28;20044;-64
2021/11/23 09:07:44;;;;;;;18.42;2.55;;;;;;;;;;5072064;28;20059;-65
2021/11/23 09:10:17;;;;;;;22.15;3.03;;;;;;;;;;5090337;28;20109;-64
2021/11/23 09:12:44;;;;;;;16.98;2.45;;;;;;;;;;5071306;28;20042;-64
2021/11/23 09:15:10;;;;;;;14.73;2.70;;;;;;;;;;5094602;28;20391;-64
2021/11/23 09:17:37;;;;;;;13.30;2.13;;;;;;;;;;5094374;28;20127;-64
2021/11/23 09:20:03;;;;;;;14.45;1.80;;;;;;;;;;5094126;28;20032;-64
2021/11/23 09:22:30;;;;;;;20.90;2.28;;;;;;;;;;5094495;28;20052;-64
2021/11/23 09:24:57;;;;;;;17.45;2.35;;;;;;;;;;5094207;28;20054;-64
2021/11/23 09:27:23;;;;;;;16.67;2.60;;;;;;;;;;5093679;28;20047;-64
2021/11/23 09:29:49;;;;;;;12.40;1.55;;;;;;;;;;5094582;28;20090;-64
2021/11/23 09:32:16;;;;;;;9.35;1.70;;;;;;;;;;5094299;28;20131;-65
2021/11/23 09:34:43;;;;;;;11.10;1.38;;;;;;;;;;5075420;28;20110;-65
2021/11/23 09:37:09;;;;;;;9.40;1.33;;;;;;;;;;5093732;28;20036;-64
2021/11/23 09:39:35;;;;;;;8.38;1.30;;;;;;;;;;5093987;28;20431;-65
2021/11/23 09:42:02;;;;;;;9.55;1.50;;;;;;;;;;5093658;28;20157;-65
2021/11/23 09:44:28;;;;;;;12.98;1.17;;;;;;;;;;5094109;28;20047;-64
2021/11/23 09:46:54;;;;;;;15.10;2.22;;;;;;;;;;5075414;28;20044;-65
2021/11/23 09:49:21;;;;;;;11.32;1.25;;;;;;;;;;5092742;28;20043;-64
2021/11/23 09:51:47;;;;;;;10.07;1.30;;;;;;;;;;5075692;28;20059;-65
2021/11/23 09:54:13;;;;;;;9.52;1.38;;;;;;;;;;5093470;28;20141;-64
2021/11/23 09:56:41;;;;;;;7.80;1.27;;;;;;;;;;5093632;28;20119;-64
2021/11/23 09:59:08;;;;;;;10.02;1.40;;;;;;;;;;5093584;28;20417;-64
2021/11/23 10:01:55;;;;;;;10.38;1.33;;;;;;;;;;5092880;28;20484;-65
2021/11/23 10:04:22;;;;;;;7.10;1.50;;;;;;;;;;5092722;28;20046;-64
2021/11/23 10:06:53;;;;;;;6.75;1.10;;;;;;;;;;5075138;28;20613;-64
2021/11/23 10:09:26;;;;;;;8.13;1.10;;;;;;;;;;5092185;28;20102;-65
2021/11/23 10:11:52;;;;;;;9.85;1.10;;;;;;;;;;5091300;28;20043;-64
2021/11/23 10:14:18;;;;;;;7.45;1.17;;;;;;;;;;5091749;28;20547;-64
2021/11/23 10:16:47;;;;;;;9.52;1.23;;;;;;;;;;5091749;28;20104;-64
2021/11/23 10:19:15;;;;;;;7.38;1.23;;;;;;;;;;5092610;28;20498;-64
2021/11/23 10:21:49;;;;;;;9.77;1.17;;;;;;;;;;5092227;28;20051;-64
2021/11/23 10:24:16;;;;;;;;;;;;;;;;;;5091741;28;20086;-64
2021/11/23 10:26:43;;;;;;;7.70;1.38;;;;;;;;;;5087925;28;20434;-64
2021/11/23 10:29:09;;;;;;;5.95;1.17;;;;;;;;;;5092277;28;20062;-64
2021/11/23 10:31:35;;;;;;;11.65;1.55;;;;;;;;;;5091521;28;20036;-65
2021/11/23 10:34:03;;;;;;;7.90;1.25;;;;;;;;;;5073109;28;20464;-65
2021/11/23 10:36:31;;;;;;;8.45;1.10;;;;;;;;;;5091042;28;20055;-64
2021/11/23 10:39:18;;;;;;;4.80;0.85;;;;;;;;;;5092499;28;20048;-63
2021/11/23 10:41:49;;;;;;;10.70;1.30;;;;;;;;;;5088305;28;20135;-63
2021/11/23 10:44:16;;;;;;;13.63;1.63;;;;;;;;;;5062091;28;20040;-64
2021/11/23 10:46:50;;;;;;;9.15;1.23;;;;;;;;;;5091496;28;20055;-63
2021/11/23 10:49:26;;;;;;;17.08;1.65;;;;;;;;;;5091027;28;20503;-63
2021/11/23 10:51:52;;;;;;;9.95;1.95;;;;;;;;;;5073003;28;20044;-63
2021/11/23 10:54:18;;;;;;;10.15;1.30;;;;;;;;;;5073154;28;20127;-63
2021/11/23 10:56:55;;;;;;;14.50;1.30;;;;;;;;;;5091870;28;20043;-63
2021/11/23 10:59:22;;;;;;;19.35;1.77;;;;;;;;;;5084955;28;20078;-63
2021/11/23 11:01:48;;;;;;;8.10;1.58;;;;;;;;;;5084518;28;20105;-64
2021/11/23 11:04:14;;;;;;;8.35;1.48;;;;;;;;;;5085155;28;20055;-63
2021/11/23 11:06:42;;;;;;;12.65;2.03;;;;;;;;;;5066595;28;20123;-63
2021/11/23 11:09:08;;;;;;;8.57;1.30;;;;;;;;;;5047394;28;1116213;-64
2021/11/23 11:11:35;;;;;;;9.95;1.52;;;;;;;;;;5087823;28;20059;-64
2021/11/23 11:14:02;;;;;;;15.45;2.22;;;;;;;;;;5088141;28;20066;-63
2021/11/23 11:16:28;;;;;;;10.95;1.85;;;;;;;;;;5089583;28;20475;-63
2021/11/23 11:19:09;;;;;;;11.20;1.30;;;;;;;;;;5070421;28;20044;-63
2021/11/23 11:21:38;;;;;;;14.80;1.90;;;;;;;;;;5074199;28;20452;-64
2021/11/23 11:24:24;;;;;;;12.13;1.25;;;;;;;;;;5078748;28;20126;-64
2021/11/23 11:26:54;;;;;;;10.57;1.17;;;;;;;;;;5082060;28;20488;-63
2021/11/23 11:29:30;;;;;;;9.40;1.25;;;;;;;;;;5081024;28;20106;-63
2021/11/23 11:31:59;;;;;;;10.02;1.40;;;;;;;;;;5088469;28;20495;-64
2021/11/23 11:34:27;;;;;;;10.18;2.10;;;;;;;;;;5090480;28;20048;-63
2021/11/23 11:37:06;;;;;;;11.65;1.20;;;;;;;;;;5073383;28;20098;-63
2021/11/23 11:39:36;;;;;;;10.30;1.83;;;;;;;;;;5073551;28;20126;-63
2021/11/23 11:42:04;;;;;;;9.68;1.20;;;;;;;;;;5091934;28;20036;-64
2021/11/23 11:44:40;;;;;;;9.98;1.42;;;;;;;;;;5091378;28;20050;-63
2021/11/23 11:47:11;;;;;;;10.00;1.67;;;;;;;;;;5091112;28;20471;-63
2021/11/23 11:50:03;;;;;;;8.32;1.73;;;;;;;;;;5089330;28;20098;-63
2021/11/23 11:52:31;;;;;;;10.50;1.52;;;;;;;;;;5091469;28;20051;-63
2021/11/23 11:55:12;;;;;;;10.20;1.38;;;;;;;;;;5072650;28;20079;-63
2021/11/23 11:57:43;;;;;;;11.00;1.50;;;;;;;;;;5091632;28;20128;-63
2021/11/23 12:00:22;;;;;;;10.07;1.17;;;;;;;;;;5088637;28;20139;-63
2021/11/23 12:02:49;;;;;;;13.52;2.17;;;;;;;;;;5091115;28;20048;-63
2021/11/23 12:05:15;;;;;;;11.07;1.55;;;;;;;;;;5088715;28;20050;-63
2021/11/23 12:07:49;;;;;;;7.43;1.30;;;;;;;;;;5091241;28;20035;-63
2021/11/23 12:10:20;;;;;;;6.40;1.02;;;;;;;;;;5090712;28;20044;-63
2021/11/23 12:13:12;;;;;;;8.32;0.90;;;;;;;;;;5091270;28;20643;-63
2021/11/23 12:15:57;;;;;;;9.13;1.30;;;;;;;;;;5088853;28;20040;-63
2021/11/23 12:18:42;;;;;;;4.40;1.60;;;;;;;;;;5091126;28;20079;-63
2021/11/23 12:21:11;;;;;;;8.70;0.73;;;;;;;;;;5087549;28;20059;-63
2021/11/23 12:23:38;;;;;;;11.63;1.40;;;;;;;;;;5090711;28;20039;-63
2021/11/23 12:26:07;;;;;;;8.38;1.20;;;;;;;;;;5072719;28;20039;-63
2021/11/23 12:28:34;;;;;;;5.70;1.20;;;;;;;;;;5090948;28;20036;-63
2021/11/23 12:31:06;;;;;;;9.02;1.35;;;;;;;;;;5090662;28;20028;-63
2021/11/23 12:33:32;;;;;;;9.18;1.73;;;;;;;;;;5072615;28;20048;-63
2021/11/23 12:35:59;;;;;;;9.20;1.42;;;;;;;;;;5090248;28;20087;-71
2021/11/23 12:38:29;;;;;;;8.70;1.80;;;;;;;;;;5090362;28;20040;-64
2021/11/23 12:40:56;;;;;;;7.68;1.20;;;;;;;;;;5090001;28;20058;-66
2021/11/23 12:43:22;;;;;;;6.25;1.23;;;;;;;;;;5090387;28;20048;-63
2021/11/23 12:45:48;;;;;;;6.95;1.08;;;;;;;;;;5072397;28;20040;-63
2021/11/23 12:48:16;;;;;;;8.90;1.00;;;;;;;;;;5089793;28;20032;-63
2021/11/23 12:50:43;;;;;;;9.95;1.40;;;;;;;;;;5089482;28;20063;-63
2021/11/23 12:53:13;;;;;;;9.35;1.40;;;;;;;;;;5090314;28;20383;-64
2021/11/23 12:55:39;;;;;;;10.02;1.48;;;;;;;;;;5071377;28;20056;-64
2021/11/23 12:58:05;;;;;;;5.13;0.90;;;;;;;;;;5089717;28;20044;-64
2021/11/23 13:00:32;;;;;;;6.38;1.23;;;;;;;;;;5090607;28;20051;-64
2021/11/23 13:02:58;;;;;;;4.43;1.00;;;;;;;;;;5091575;28;20495;-65
2021/11/23 13:05:27;;;;;;;3.42;0.75;;;;;;;;;;5091218;28;20044;-65
2021/11/23 13:07:55;;;;;;;5.82;0.82;;;;;;;;;;5090893;28;20442;-65
2021/11/23 13:10:22;;;;;;;3.85;0.70;;;;;;;;;;5081946;28;20040;-65
2021/11/23 13:12:52;;;;;;;9.88;1.00;;;;;;;;;;5072613;28;20069;-64
2021/11/23 13:15:25;;;;;;;5.63;1.15;;;;;;;;;;5090842;28;20498;-65
2021/11/23 13:17:52;;;;;;;4.78;0.80;;;;;;;;;;5091423;28;20071;-64
2021/11/23 13:20:20;;;;;;;4.47;0.65;;;;;;;;;;5090577;28;20051;-64
2021/11/23 13:22:50;;;;;;;5.30;0.98;;;;;;;;;;5090855;28;20411;-64
2021/11/23 13:25:17;;;;;;;3.35;0.55;;;;;;;;;;5090716;28;20048;-65
2021/11/23 13:27:43;;;;;;;3.40;0.60;;;;;;;;;;5091386;28;20047;-65
2021/11/23 13:30:29;;;;;;;6.85;1.52;;;;;;;;;;5090753;28;20044;-65
2021/11/23 13:32:55;;;;;;;3.58;0.68;;;;;;;;;;5090389;28;20033;-64
2021/11/23 13:35:22;;;;;;;6.07;0.88;;;;;;;;;;5090909;28;20381;-65
2021/11/23 13:37:50;;;;;;;3.25;0.55;;;;;;;;;;5090888;28;20036;-64
2021/11/23 13:40:20;;;;;;;4.38;0.90;;;;;;;;;;5072665;28;20673;-64
2021/11/23 13:42:46;;;;;;;6.32;0.75;;;;;;;;;;5090303;28;20092;-64
2021/11/23 13:45:14;;;;;;;3.40;0.55;;;;;;;;;;5089370;28;20036;-64
2021/11/23 13:47:40;;;;;;;6.35;1.05;;;;;;;;;;5089460;28;20086;-64
2021/11/23 13:50:07;;;;;;;9.93;1.27;;;;;;;;;;5090015;28;20047;-64
2021/11/23 13:52:34;;;;;;;4.75;0.80;;;;;;;;;;5090223;28;20043;-64
2021/11/23 13:55:01;;;;;;;4.57;1.15;;;;;;;;;;5071199;28;20071;-64
2021/11/23 13:57:34;;;;;;;14.35;1.33;;;;;;;;;;5090156;28;20055;-63
2021/11/23 14:00:02;;;;;;;7.38;1.20;;;;;;;;;;5092176;28;20447;-64
2021/11/23 14:02:41;;;;;;;7.18;0.95;;;;;;;;;;5074447;28;20040;-64
2021/11/23 14:05:07;;;;;;;7.85;1.08;;;;;;;;;;5093196;28;20173;-65
2021/11/23 14:07:54;;;;;;;7.72;1.33;;;;;;;;;;5094584;28;20040;-65
2021/11/23 14:10:26;;;;;;;5.95;1.08;;;;;;;;;;5095416;28;20573;-64
2021/11/23 14:12:53;;;;;;;9.77;1.40;;;;;;;;;;5063379;28;20052;-64
2021/11/23 14:15:21;;;;;;;11.75;2.03;;;;;;;;;;5083302;28;20117;-64
2021/11/23 14:17:56;;;;;;;8.73;1.15;;;;;;;;;;5069267;28;20426;-64
2021/11/23 14:20:23;;;;;;;6.75;1.20;;;;;;;;;;5068970;28;20049;-64
2021/11/23 14:22:49;;;;;;;6.78;0.95;;;;;;;;;;5092016;28;20412;-64
2021/11/23 14:25:16;;;;;;;10.38;1.40;;;;;;;;;;5069050;28;20061;-64
2021/11/23 14:27:50;;;;;;;4.15;0.80;;;;;;;;;;5082799;28;20055;-64
2021/11/23 14:30:16;;;;;;;;;;;;;;;;;;5075986;28;20072;-64
2021/11/23 14:32:42;;;;;;;10.60;0.95;;;;;;;;;;5065344;28;20439;-64
2021/11/23 14:35:08;;;;;;;10.45;1.17;;;;;;;;;;5081170;28;20047;-64
2021/11/23 14:37:35;;;;;;;6.25;0.90;;;;;;;;;;5069288;28;20055;-64
2021/11/23 14:40:02;;;;;;;9.32;0.98;;;;;;;;;;5099467;27;20083;-64